createdAt,value
2017-12-24T00:00:48.058Z,9.51
2017-12-24T00:01:47.797Z,9.56
2017-12-24T00:02:47.811Z,9.59
2017-12-24T00:03:47.827Z,9.61
2017-12-24T00:04:47.853Z,9.5
2017-12-24T00:05:48.141Z,9.61
2017-12-24T00:06:47.869Z,9.59
2017-12-24T00:07:48.156Z,9.55
2017-12-24T00:08:48.174Z,9.59
2017-12-24T00:09:47.912Z,9.62
2017-12-24T00:10:47.929Z,9.55
2017-12-24T00:11:47.958Z,9.64
2017-12-24T00:12:47.678Z,9.56
2017-12-24T00:13:47.969Z,9.59
2017-12-24T00:14:48.264Z,9.55
2017-12-24T00:15:48.269Z,9.55
2017-12-24T00:16:48.014Z,9.61
2017-12-24T00:17:48.023Z,9.66
2017-12-24T00:18:47.765Z,9.68
2017-12-24T00:19:48.053Z,9.58
2017-12-24T00:20:47.789Z,9.72
2017-12-24T00:21:48.357Z,9.68
2017-12-24T00:22:48.144Z,9.65
2017-12-24T00:23:48.113Z,9.61
2017-12-24T00:24:48.127Z,9.65
2017-12-24T00:25:48.422Z,9.62
2017-12-24T00:26:48.151Z,9.65
2017-12-24T00:27:48.213Z,9.72
2017-12-24T00:28:48.185Z,9.68
2017-12-24T00:29:48.476Z,9.69
2017-12-24T00:30:48.482Z,9.61
2017-12-24T00:31:47.945Z,9.64
2017-12-24T00:32:48.011Z,9.65
2017-12-24T00:33:48.250Z,9.65
2017-12-24T00:34:48.296Z,9.69
2017-12-24T00:35:48.555Z,9.73
2017-12-24T00:36:48.293Z,9.64
2017-12-24T00:37:48.614Z,9.65
2017-12-24T00:38:48.320Z,9.72
2017-12-24T00:39:48.612Z,9.69
2017-12-24T00:40:48.623Z,9.74
2017-12-24T00:41:48.085Z,9.66
2017-12-24T00:42:48.155Z,9.66
2017-12-24T00:43:48.389Z,9.66
2017-12-24T00:44:48.679Z,9.68
2017-12-24T00:45:48.141Z,9.66
2017-12-24T00:46:48.709Z,9.74
2017-12-24T00:47:48.450Z,9.73
2017-12-24T00:48:48.735Z,9.65
2017-12-24T00:49:48.748Z,9.66
2017-12-24T00:50:48.213Z,9.76
2017-12-24T00:51:48.837Z,9.74
2017-12-24T00:52:48.792Z,9.62
2017-12-24T00:53:48.534Z,9.68
2017-12-24T00:54:48.267Z,9.74
2017-12-24T00:55:48.836Z,9.77
2017-12-24T00:56:48.858Z,9.64
2017-12-24T00:57:48.918Z,9.76
2017-12-24T00:58:48.879Z,9.66
2017-12-24T00:59:48.891Z,9.72
2017-12-24T01:00:48.637Z,9.76
2017-12-24T01:01:48.649Z,9.65
2017-12-24T01:02:48.984Z,9.66
2017-12-24T01:03:48.673Z,9.66
2017-12-24T01:04:48.967Z,9.68
2017-12-24T01:05:49.008Z,9.72
2017-12-24T01:06:48.711Z,9.65
2017-12-24T01:07:48.732Z,9.83
2017-12-24T01:08:49.021Z,9.72
2017-12-24T01:09:48.760Z,9.73
2017-12-24T01:10:48.772Z,9.79
2017-12-24T01:11:48.793Z,9.82
2017-12-24T01:12:48.797Z,9.72
2017-12-24T01:13:49.091Z,9.76
2017-12-24T01:14:49.102Z,9.73
2017-12-24T01:15:49.136Z,9.77
2017-12-24T01:16:48.852Z,9.65
2017-12-24T01:17:48.924Z,9.77
2017-12-24T01:18:48.886Z,9.69
2017-12-24T01:19:48.620Z,9.66
2017-12-24T01:20:48.645Z,9.79
2017-12-24T01:21:49.208Z,9.76
2017-12-24T01:22:49.267Z,9.73
2017-12-24T01:23:48.959Z,9.73
2017-12-24T01:24:48.966Z,9.79
2017-12-24T01:25:48.984Z,9.76
2017-12-24T01:26:49.283Z,9.79
2017-12-24T01:27:49.389Z,9.8
2017-12-24T01:28:49.302Z,9.74
2017-12-24T01:29:49.319Z,9.79
2017-12-24T01:30:49.055Z,9.79
2017-12-24T01:31:49.066Z,9.74
2017-12-24T01:32:49.358Z,9.8
2017-12-24T01:33:49.373Z,9.79
2017-12-24T01:34:49.449Z,9.76
2017-12-24T01:35:49.122Z,9.8
2017-12-24T01:36:49.411Z,9.79
2017-12-24T01:37:49.484Z,9.87
2017-12-24T01:38:49.168Z,9.79
2017-12-24T01:39:49.459Z,9.86
2017-12-24T01:40:49.196Z,9.79
2017-12-24T01:41:49.207Z,9.83
2017-12-24T01:42:49.514Z,9.83
2017-12-24T01:43:49.518Z,9.8
2017-12-24T01:44:49.247Z,9.82
2017-12-24T01:45:49.541Z,9.83
2017-12-24T01:46:49.553Z,9.83
2017-12-24T01:47:49.628Z,9.8
2017-12-24T01:48:49.307Z,9.77
2017-12-24T01:49:49.324Z,9.82
2017-12-24T01:50:49.337Z,9.83
2017-12-24T01:51:49.628Z,9.76
2017-12-24T01:52:49.118Z,9.76
2017-12-24T01:53:49.390Z,9.73
2017-12-24T01:54:49.389Z,9.77
2017-12-24T01:55:49.684Z,9.79
2017-12-24T01:56:49.699Z,9.8
2017-12-24T01:57:49.768Z,9.77
2017-12-24T01:58:49.726Z,9.79
2017-12-24T01:59:49.742Z,9.8
2017-12-24T02:00:49.762Z,9.62
2017-12-24T02:01:49.493Z,9.64
2017-12-24T02:02:49.781Z,9.66
2017-12-24T02:03:49.801Z,9.66
2017-12-24T02:04:49.536Z,9.64
2017-12-24T02:05:49.549Z,9.82
2017-12-24T02:06:49.572Z,9.76
2017-12-24T02:07:49.303Z,9.77
2017-12-24T02:08:49.591Z,9.72
2017-12-24T02:09:49.882Z,9.77
2017-12-24T02:10:49.630Z,9.76
2017-12-24T02:11:49.636Z,9.74
2017-12-24T02:12:49.653Z,9.66
2017-12-24T02:13:49.944Z,9.66
2017-12-24T02:14:49.681Z,9.66
2017-12-24T02:15:49.689Z,9.69
2017-12-24T02:16:49.707Z,9.65
2017-12-24T02:17:49.721Z,9.62
2017-12-24T02:18:50.014Z,9.66
2017-12-24T02:19:50.025Z,9.69
2017-12-24T02:20:49.765Z,9.66
2017-12-24T02:21:49.800Z,9.69
2017-12-24T02:22:50.120Z,9.65
2017-12-24T02:23:50.098Z,9.66
2017-12-24T02:24:50.095Z,9.58
2017-12-24T02:25:50.112Z,9.66
2017-12-24T02:26:49.851Z,9.73
2017-12-24T02:27:50.141Z,9.58
2017-12-24T02:28:50.151Z,9.59
2017-12-24T02:29:50.260Z,9.55
2017-12-24T02:30:50.190Z,9.58
2017-12-24T02:31:49.928Z,9.61
2017-12-24T02:32:49.685Z,9.56
2017-12-24T02:33:49.682Z,9.54
2017-12-24T02:34:50.246Z,9.58
2017-12-24T02:35:50.253Z,9.59
2017-12-24T02:36:50.290Z,9.54
2017-12-24T02:37:50.284Z,9.56
2017-12-24T02:38:50.290Z,9.62
2017-12-24T02:39:50.310Z,9.56
2017-12-24T02:40:50.048Z,9.55
2017-12-24T02:41:50.342Z,9.59
2017-12-24T02:42:50.077Z,9.58
2017-12-24T02:43:50.389Z,9.56
2017-12-24T02:44:50.380Z,9.58
2017-12-24T02:45:50.122Z,9.59
2017-12-24T02:46:50.407Z,9.56
2017-12-24T02:47:50.441Z,9.56
2017-12-24T02:48:50.445Z,9.59
2017-12-24T02:49:50.175Z,9.55
2017-12-24T02:50:50.188Z,9.59
2017-12-24T02:51:50.492Z,9.55
2017-12-24T02:52:50.493Z,9.61
2017-12-24T02:53:50.234Z,9.56
2017-12-24T02:54:50.524Z,9.59
2017-12-24T02:55:50.536Z,9.56
2017-12-24T02:56:50.268Z,9.48
2017-12-24T02:57:50.568Z,9.61
2017-12-24T02:58:50.330Z,9.5
2017-12-24T02:59:50.311Z,9.47
2017-12-24T03:00:50.603Z,9.47
2017-12-24T03:01:50.620Z,9.54
2017-12-24T03:02:50.629Z,9.62
2017-12-24T03:03:50.654Z,9.51
2017-12-24T03:04:50.662Z,9.51
2017-12-24T03:05:50.677Z,9.5
2017-12-24T03:06:50.704Z,9.58
2017-12-24T03:07:50.424Z,9.58
2017-12-24T03:08:50.446Z,9.5
2017-12-24T03:09:50.453Z,9.47
2017-12-24T03:10:50.752Z,9.47
2017-12-24T03:11:50.484Z,9.54
2017-12-24T03:12:50.771Z,9.47
2017-12-24T03:13:50.508Z,9.44
2017-12-24T03:14:50.801Z,9.51
2017-12-24T03:15:50.865Z,9.4
2017-12-24T03:16:50.557Z,9.47
2017-12-24T03:17:50.565Z,9.44
2017-12-24T03:18:50.355Z,9.41
2017-12-24T03:19:50.319Z,9.46
2017-12-24T03:20:50.609Z,9.46
2017-12-24T03:21:50.901Z,9.5
2017-12-24T03:22:50.639Z,9.43
2017-12-24T03:23:50.703Z,9.46
2017-12-24T03:24:50.951Z,9.44
2017-12-24T03:25:50.952Z,9.44
2017-12-24T03:26:50.701Z,9.41
2017-12-24T03:27:50.981Z,9.47
2017-12-24T03:28:51.051Z,9.46
2017-12-24T03:29:51.012Z,9.43
2017-12-24T03:30:51.033Z,9.41
2017-12-24T03:31:50.486Z,9.48
2017-12-24T03:32:50.499Z,9.5
2017-12-24T03:33:50.794Z,9.47
2017-12-24T03:34:50.809Z,9.47
2017-12-24T03:35:50.892Z,9.46
2017-12-24T03:36:50.839Z,9.5
2017-12-24T03:37:50.847Z,9.47
2017-12-24T03:38:50.583Z,9.46
2017-12-24T03:39:50.882Z,9.48
2017-12-24T03:40:50.888Z,9.44
2017-12-24T03:41:50.902Z,9.44
2017-12-24T03:42:50.923Z,9.44
2017-12-24T03:43:50.929Z,9.44
2017-12-24T03:44:51.221Z,9.46
2017-12-24T03:45:50.964Z,9.47
2017-12-24T03:46:50.970Z,9.43
2017-12-24T03:47:50.984Z,9.47
2017-12-24T03:48:51.000Z,9.46
2017-12-24T03:49:51.015Z,9.48
2017-12-24T03:50:51.037Z,9.43
2017-12-24T03:51:51.321Z,9.39
2017-12-24T03:52:51.055Z,9.43
2017-12-24T03:53:51.394Z,9.44
2017-12-24T03:54:51.084Z,9.41
2017-12-24T03:55:51.383Z,9.46
2017-12-24T03:56:51.401Z,9.39
2017-12-24T03:57:51.404Z,9.44
2017-12-24T03:58:51.139Z,9.47
2017-12-24T03:59:51.431Z,9.46
2017-12-24T04:00:51.446Z,9.46
2017-12-24T04:01:51.462Z,9.37
2017-12-24T04:02:51.472Z,9.43
2017-12-24T04:03:51.605Z,9.41
2017-12-24T04:04:51.503Z,9.44
2017-12-24T04:05:51.516Z,9.46
2017-12-24T04:06:51.254Z,9.39
2017-12-24T04:07:51.268Z,9.46
2017-12-24T04:08:51.015Z,9.46
2017-12-24T04:09:51.631Z,9.41
2017-12-24T04:10:51.308Z,9.46
2017-12-24T04:11:51.608Z,9.46
2017-12-24T04:12:51.609Z,9.46
2017-12-24T04:13:51.189Z,9.37
2017-12-24T04:14:51.364Z,9.47
2017-12-24T04:15:51.380Z,9.44
2017-12-24T04:16:51.682Z,9.47
2017-12-24T04:17:51.680Z,9.44
2017-12-24T04:18:51.695Z,9.34
2017-12-24T04:19:51.441Z,9.44
2017-12-24T04:20:51.723Z,9.4
2017-12-24T04:21:51.738Z,9.37
2017-12-24T04:22:51.755Z,9.4
2017-12-24T04:23:51.263Z,9.43
2017-12-24T04:24:51.505Z,9.39
2017-12-24T04:25:51.793Z,9.37
2017-12-24T04:26:51.532Z,9.39
2017-12-24T04:27:51.828Z,9.36
2017-12-24T04:28:51.836Z,9.46
2017-12-24T04:29:51.845Z,9.39
2017-12-24T04:30:51.861Z,9.4
2017-12-24T04:31:51.876Z,9.41
2017-12-24T04:32:51.891Z,9.32
2017-12-24T04:33:51.962Z,9.39
2017-12-24T04:34:51.923Z,9.36
2017-12-24T04:35:51.934Z,9.41
2017-12-24T04:36:51.948Z,9.34
2017-12-24T04:37:51.958Z,9.31
2017-12-24T04:38:52.064Z,9.34
2017-12-24T04:39:51.713Z,9.36
2017-12-24T04:40:52.007Z,9.36
2017-12-24T04:41:51.740Z,9.34
2017-12-24T04:42:52.034Z,9.34
2017-12-24T04:43:51.773Z,9.34
2017-12-24T04:44:52.057Z,9.41
2017-12-24T04:45:52.070Z,9.39
2017-12-24T04:46:51.812Z,9.37
2017-12-24T04:47:51.830Z,9.4
2017-12-24T04:48:51.933Z,9.36
2017-12-24T04:49:52.134Z,9.36
2017-12-24T04:50:52.143Z,9.34
2017-12-24T04:51:51.888Z,9.34
2017-12-24T04:52:52.168Z,9.34
2017-12-24T04:53:52.182Z,9.36
2017-12-24T04:54:52.202Z,9.32
2017-12-24T04:55:51.934Z,9.41
2017-12-24T04:56:51.949Z,9.32
2017-12-24T04:57:51.962Z,9.32
2017-12-24T04:58:51.716Z,9.36
2017-12-24T04:59:52.265Z,9.32
2017-12-24T05:00:52.282Z,9.37
2017-12-24T05:01:52.022Z,9.34
2017-12-24T05:02:52.039Z,9.4
2017-12-24T05:03:52.438Z,9.4
2017-12-24T05:04:52.060Z,9.4
2017-12-24T05:05:52.075Z,9.37
2017-12-24T05:06:52.094Z,9.34
2017-12-24T05:07:52.378Z,9.36
2017-12-24T05:08:52.444Z,9.34
2017-12-24T05:09:52.409Z,9.37
2017-12-24T05:10:52.155Z,9.34
2017-12-24T05:11:52.436Z,9.4
2017-12-24T05:12:52.451Z,9.34
2017-12-24T05:13:52.510Z,9.28
2017-12-24T05:14:51.924Z,9.26
2017-12-24T05:15:52.490Z,9.37
2017-12-24T05:16:52.505Z,9.25
2017-12-24T05:17:52.518Z,9.21
2017-12-24T05:18:52.580Z,9.34
2017-12-24T05:19:52.269Z,9.26
2017-12-24T05:20:52.283Z,9.34
2017-12-24T05:21:52.300Z,9.34
2017-12-24T05:22:52.588Z,9.32
2017-12-24T05:23:52.427Z,9.31
2017-12-24T05:24:52.339Z,9.23
2017-12-24T05:25:52.349Z,9.34
2017-12-24T05:26:52.640Z,9.32
2017-12-24T05:27:52.381Z,9.32
2017-12-24T05:28:52.669Z,9.34
2017-12-24T05:29:52.135Z,9.31
2017-12-24T05:30:52.423Z,9.29
2017-12-24T05:31:52.722Z,9.32
2017-12-24T05:32:52.449Z,9.26
2017-12-24T05:33:52.738Z,9.25
2017-12-24T05:34:52.754Z,9.29
2017-12-24T05:35:52.764Z,9.31
2017-12-24T05:36:52.555Z,9.26
2017-12-24T05:37:52.792Z,9.31
2017-12-24T05:38:52.586Z,9.31
2017-12-24T05:39:52.839Z,9.26
2017-12-24T05:40:52.833Z,9.29
2017-12-24T05:41:52.850Z,9.31
2017-12-24T05:42:52.866Z,9.31
2017-12-24T05:43:52.928Z,9.25
2017-12-24T05:44:52.889Z,9.26
2017-12-24T05:45:52.907Z,9.34
2017-12-24T05:46:52.920Z,9.22
2017-12-24T05:47:52.938Z,9.26
2017-12-24T05:48:53.020Z,9.31
2017-12-24T05:49:52.410Z,9.23
2017-12-24T05:50:52.975Z,9.29
2017-12-24T05:51:52.717Z,9.22
2017-12-24T05:52:53.000Z,9.31
2017-12-24T05:53:52.740Z,9.37
2017-12-24T05:54:52.751Z,9.41
2017-12-24T05:55:53.039Z,9.36
2017-12-24T05:56:53.056Z,9.26
2017-12-24T05:57:52.522Z,9.4
2017-12-24T05:58:52.829Z,9.25
2017-12-24T05:59:53.099Z,9.32
2017-12-24T06:00:52.843Z,9.31
2017-12-24T06:01:52.849Z,9.26
2017-12-24T06:02:53.136Z,9.21
2017-12-24T06:03:52.876Z,9.28
2017-12-24T06:04:53.233Z,9.29
2017-12-24T06:05:53.183Z,9.31
2017-12-24T06:06:52.917Z,9.34
2017-12-24T06:07:53.209Z,9.23
2017-12-24T06:08:52.948Z,9.28
2017-12-24T06:09:53.240Z,9.34
2017-12-24T06:10:53.288Z,9.32
2017-12-24T06:11:53.279Z,9.22
2017-12-24T06:12:53.280Z,9.28
2017-12-24T06:13:52.747Z,9.23
2017-12-24T06:14:53.306Z,9.34
2017-12-24T06:15:53.044Z,9.34
2017-12-24T06:16:53.060Z,9.37
2017-12-24T06:17:53.362Z,9.23
2017-12-24T06:18:53.361Z,9.36
2017-12-24T06:19:53.377Z,9.37
2017-12-24T06:20:53.394Z,9.25
2017-12-24T06:21:53.408Z,9.26
2017-12-24T06:22:53.419Z,9.29
2017-12-24T06:23:53.154Z,9.23
2017-12-24T06:24:53.443Z,9.25
2017-12-24T06:25:53.458Z,9.34
2017-12-24T06:26:53.473Z,9.31
2017-12-24T06:27:53.210Z,9.32
2017-12-24T06:28:53.498Z,9.37
2017-12-24T06:29:53.245Z,9.34
2017-12-24T06:30:53.249Z,9.25
2017-12-24T06:31:53.266Z,9.37
2017-12-24T06:32:53.279Z,9.34
2017-12-24T06:33:53.301Z,9.4
2017-12-24T06:34:53.591Z,9.32
2017-12-24T06:35:53.329Z,9.39
2017-12-24T06:36:53.611Z,9.37
2017-12-24T06:37:53.624Z,9.34
2017-12-24T06:38:53.364Z,9.37
2017-12-24T06:39:53.662Z,9.34
2017-12-24T06:40:53.390Z,9.32
2017-12-24T06:41:53.406Z,9.31
2017-12-24T06:42:53.420Z,9.34
2017-12-24T06:43:53.709Z,9.36
2017-12-24T06:44:53.723Z,9.34
2017-12-24T06:45:53.536Z,9.32
2017-12-24T06:46:53.750Z,9.37
2017-12-24T06:47:53.762Z,9.32
2017-12-24T06:48:53.780Z,9.39
2017-12-24T06:49:53.794Z,9.41
2017-12-24T06:50:53.808Z,9.43
2017-12-24T06:51:53.818Z,9.36
2017-12-24T06:52:53.557Z,9.4
2017-12-24T06:53:53.851Z,9.43
2017-12-24T06:54:53.590Z,9.44
2017-12-24T06:55:53.609Z,9.4
2017-12-24T06:56:53.620Z,9.4
2017-12-24T06:57:53.904Z,9.41
2017-12-24T06:58:53.369Z,9.4
2017-12-24T06:59:53.929Z,9.47
2017-12-24T07:00:53.947Z,9.48
2017-12-24T07:01:53.404Z,9.47
2017-12-24T07:02:53.973Z,9.47
2017-12-24T07:03:53.451Z,9.44
2017-12-24T07:04:54.001Z,9.48
2017-12-24T07:05:53.462Z,9.4
2017-12-24T07:06:53.771Z,9.47
2017-12-24T07:07:53.488Z,9.44
2017-12-24T07:08:53.779Z,9.46
2017-12-24T07:09:54.069Z,9.47
2017-12-24T07:10:54.097Z,9.43
2017-12-24T07:11:53.549Z,9.5
2017-12-24T07:12:53.833Z,9.44
2017-12-24T07:13:53.848Z,9.54
2017-12-24T07:14:53.584Z,9.51
2017-12-24T07:15:54.164Z,9.51
2017-12-24T07:16:54.169Z,9.51
2017-12-24T07:17:54.184Z,9.47
2017-12-24T07:18:54.199Z,9.54
2017-12-24T07:19:53.932Z,9.61
2017-12-24T07:20:54.220Z,9.55
2017-12-24T07:21:54.234Z,9.62
2017-12-24T07:22:54.247Z,9.59
2017-12-24T07:23:53.712Z,9.58
2017-12-24T07:24:54.345Z,9.58
2017-12-24T07:25:54.293Z,9.54
2017-12-24T07:26:54.031Z,9.61
2017-12-24T07:27:54.052Z,9.56
2017-12-24T07:28:54.337Z,9.54
2017-12-24T07:29:54.354Z,9.59
2017-12-24T07:30:54.085Z,9.61
2017-12-24T07:31:54.378Z,9.59
2017-12-24T07:32:54.389Z,9.58
2017-12-24T07:33:54.124Z,9.73
2017-12-24T07:34:54.469Z,9.66
2017-12-24T07:35:54.439Z,9.65
2017-12-24T07:36:54.167Z,9.64
2017-12-24T07:37:54.187Z,9.69
2017-12-24T07:38:53.919Z,9.66
2017-12-24T07:39:54.211Z,9.69
2017-12-24T07:40:54.504Z,9.72
2017-12-24T07:41:54.517Z,9.68
2017-12-24T07:42:54.529Z,9.69
2017-12-24T07:43:54.542Z,9.68
2017-12-24T07:44:54.553Z,9.73
2017-12-24T07:45:54.305Z,9.69
2017-12-24T07:46:54.583Z,9.65
2017-12-24T07:47:54.596Z,9.69
2017-12-24T07:48:54.335Z,9.68
2017-12-24T07:49:54.675Z,9.66
2017-12-24T07:50:54.430Z,9.61
2017-12-24T07:51:54.651Z,9.62
2017-12-24T07:52:54.392Z,9.77
2017-12-24T07:53:54.403Z,9.72
2017-12-24T07:54:54.695Z,9.64
2017-12-24T07:55:54.717Z,9.77
2017-12-24T07:56:54.727Z,9.76
2017-12-24T07:57:54.738Z,9.79
2017-12-24T07:58:54.473Z,9.77
2017-12-24T07:59:54.793Z,9.8
2017-12-24T08:00:54.778Z,9.83
2017-12-24T08:01:54.245Z,9.8
2017-12-24T08:02:54.823Z,9.68
2017-12-24T08:03:54.819Z,9.62
2017-12-24T08:04:54.563Z,9.62
2017-12-24T08:05:54.846Z,9.68
2017-12-24T08:06:54.589Z,9.74
2017-12-24T08:07:54.602Z,9.66
2017-12-24T08:08:54.904Z,9.73
2017-12-24T08:09:54.628Z,9.74
2017-12-24T08:10:54.919Z,9.79
2017-12-24T08:11:54.938Z,9.76
2017-12-24T08:12:54.955Z,9.74
2017-12-24T08:13:54.967Z,9.76
2017-12-24T08:14:54.697Z,9.73
2017-12-24T08:15:54.714Z,9.82
2017-12-24T08:16:54.725Z,9.76
2017-12-24T08:17:54.743Z,9.82
2017-12-24T08:18:54.759Z,9.94
2017-12-24T08:19:54.775Z,9.79
2017-12-24T08:20:55.074Z,9.82
2017-12-24T08:21:55.108Z,9.82
2017-12-24T08:22:54.539Z,9.82
2017-12-24T08:23:55.103Z,9.83
2017-12-24T08:24:54.914Z,9.84
2017-12-24T08:25:54.859Z,9.82
2017-12-24T08:26:55.146Z,9.82
2017-12-24T08:27:55.168Z,9.87
2017-12-24T08:28:55.172Z,9.82
2017-12-24T08:29:54.912Z,9.8
2017-12-24T08:30:55.205Z,9.83
2017-12-24T08:31:54.939Z,9.82
2017-12-24T08:32:54.959Z,9.97
2017-12-24T08:33:55.242Z,9.84
2017-12-24T08:34:55.262Z,9.83
2017-12-24T08:35:55.000Z,9.89
2017-12-24T08:36:55.289Z,9.92
2017-12-24T08:37:55.030Z,9.94
2017-12-24T08:38:55.319Z,9.98
2017-12-24T08:39:55.335Z,9.95
2017-12-24T08:40:55.343Z,9.95
2017-12-24T08:41:55.360Z,9.97
2017-12-24T08:42:55.376Z,9.89
2017-12-24T08:43:55.118Z,9.94
2017-12-24T08:44:55.402Z,9.91
2017-12-24T08:45:55.565Z,9.92
2017-12-24T08:46:55.428Z,9.94
2017-12-24T08:47:55.445Z,9.94
2017-12-24T08:48:55.457Z,9.97
2017-12-24T08:49:55.212Z,9.94
2017-12-24T08:50:55.260Z,10.02
2017-12-24T08:51:55.226Z,9.97
2017-12-24T08:52:55.511Z,10.01
2017-12-24T08:53:55.527Z,10.02
2017-12-24T08:54:55.543Z,9.97
2017-12-24T08:55:55.332Z,10.01
2017-12-24T08:56:55.021Z,9.97
2017-12-24T08:57:55.314Z,9.94
2017-12-24T08:58:55.323Z,9.94
2017-12-24T08:59:55.624Z,10.01
2017-12-24T09:00:55.682Z,10.05
2017-12-24T09:01:55.367Z,10.01
2017-12-24T09:02:55.380Z,10.1
2017-12-24T09:03:55.674Z,10.09
2017-12-24T09:04:55.410Z,10.09
2017-12-24T09:05:55.517Z,10.1
2017-12-24T09:06:55.441Z,10.05
2017-12-24T09:07:55.515Z,10.1
2017-12-24T09:08:55.796Z,10.13
2017-12-24T09:09:55.479Z,10.07
2017-12-24T09:10:55.779Z,10.07
2017-12-24T09:11:55.515Z,10.09
2017-12-24T09:12:55.798Z,10.07
2017-12-24T09:13:55.826Z,10.05
2017-12-24T09:14:55.559Z,10.16
2017-12-24T09:15:55.895Z,10.09
2017-12-24T09:16:55.860Z,10.15
2017-12-24T09:17:55.597Z,10.07
2017-12-24T09:18:56.114Z,10.12
2017-12-24T09:19:55.625Z,10.04
2017-12-24T09:20:55.638Z,10.15
2017-12-24T09:21:55.932Z,10.13
2017-12-24T09:22:55.955Z,10.13
2017-12-24T09:23:55.973Z,10.13
2017-12-24T09:24:55.727Z,10.13
2017-12-24T09:25:56.039Z,10.13
2017-12-24T09:26:56.021Z,10.19
2017-12-24T09:27:55.742Z,10.1
2017-12-24T09:28:55.759Z,10.16
2017-12-24T09:29:55.779Z,10.12
2017-12-24T09:30:55.562Z,10.13
2017-12-24T09:31:56.077Z,10.15
2017-12-24T09:32:56.090Z,10.16
2017-12-24T09:33:55.835Z,10.09
2017-12-24T09:34:56.114Z,10.17
2017-12-24T09:35:56.183Z,10.2
2017-12-24T09:36:56.150Z,10.17
2017-12-24T09:37:56.159Z,10.17
2017-12-24T09:38:56.175Z,10.25
2017-12-24T09:39:56.191Z,10.16
2017-12-24T09:40:55.978Z,10.26
2017-12-24T09:41:56.219Z,10.22
2017-12-24T09:42:55.958Z,10.26
2017-12-24T09:43:56.248Z,10.25
2017-12-24T09:44:56.260Z,10.22
2017-12-24T09:45:55.997Z,10.3
2017-12-24T09:46:56.014Z,10.23
2017-12-24T09:47:56.314Z,10.26
2017-12-24T09:48:56.315Z,10.23
2017-12-24T09:49:55.799Z,10.26
2017-12-24T09:50:56.168Z,10.3
2017-12-24T09:51:56.360Z,10.28
2017-12-24T09:52:56.105Z,10.28
2017-12-24T09:53:56.394Z,10.33
2017-12-24T09:54:56.413Z,10.35
2017-12-24T09:55:56.475Z,10.34
2017-12-24T09:56:56.231Z,10.34
2017-12-24T09:57:56.448Z,10.31
2017-12-24T09:58:56.469Z,10.38
2017-12-24T09:59:56.486Z,10.41
2017-12-24T10:00:56.285Z,10.4
2017-12-24T10:01:56.230Z,10.35
2017-12-24T10:02:56.245Z,10.37
2017-12-24T10:03:56.261Z,10.38
2017-12-24T10:04:56.277Z,10.37
2017-12-24T10:05:56.564Z,10.42
2017-12-24T10:06:56.308Z,10.4
2017-12-24T10:07:56.604Z,10.41
2017-12-24T10:08:56.611Z,10.44
2017-12-24T10:09:56.631Z,10.53
2017-12-24T10:10:56.411Z,10.53
2017-12-24T10:11:56.380Z,10.44
2017-12-24T10:12:56.670Z,10.51
2017-12-24T10:13:56.409Z,10.49
2017-12-24T10:14:56.699Z,10.49
2017-12-24T10:15:56.538Z,10.56
2017-12-24T10:16:56.734Z,10.54
2017-12-24T10:17:56.777Z,10.6
2017-12-24T10:18:56.480Z,10.6
2017-12-24T10:19:56.773Z,10.53
2017-12-24T10:20:56.837Z,10.51
2017-12-24T10:21:56.532Z,10.63
2017-12-24T10:22:56.538Z,10.63
2017-12-24T10:23:56.881Z,10.64
2017-12-24T10:24:56.386Z,10.67
2017-12-24T10:25:56.945Z,10.63
2017-12-24T10:26:56.880Z,10.69
2017-12-24T10:27:56.613Z,10.64
2017-12-24T10:28:56.630Z,10.64
2017-12-24T10:29:56.644Z,10.69
2017-12-24T10:30:56.660Z,10.63
2017-12-24T10:31:56.951Z,10.68
2017-12-24T10:32:56.972Z,10.64
2017-12-24T10:33:56.705Z,10.71
2017-12-24T10:34:56.992Z,10.68
2017-12-24T10:35:56.729Z,10.68
2017-12-24T10:36:56.749Z,10.68
2017-12-24T10:37:57.036Z,10.67
2017-12-24T10:38:57.052Z,10.67
2017-12-24T10:39:56.519Z,10.78
2017-12-24T10:40:56.575Z,10.79
2017-12-24T10:41:56.823Z,10.68
2017-12-24T10:42:57.120Z,10.76
2017-12-24T10:43:56.886Z,10.68
2017-12-24T10:44:56.874Z,10.74
2017-12-24T10:45:56.655Z,10.78
2017-12-24T10:46:57.172Z,10.78
2017-12-24T10:47:56.916Z,10.68
2017-12-24T10:48:57.198Z,10.67
2017-12-24T10:49:56.943Z,10.75
2017-12-24T10:50:57.010Z,10.69
2017-12-24T10:51:56.965Z,10.71
2017-12-24T10:52:57.085Z,10.76
2017-12-24T10:53:57.006Z,10.75
2017-12-24T10:54:57.295Z,10.78
2017-12-24T10:55:57.379Z,10.81
2017-12-24T10:56:57.320Z,10.74
2017-12-24T10:57:57.334Z,10.74
2017-12-24T10:58:57.349Z,10.74
2017-12-24T10:59:57.364Z,10.74
2017-12-24T11:00:57.428Z,10.74
2017-12-24T11:01:57.445Z,10.81
2017-12-24T11:02:57.409Z,10.72
2017-12-24T11:03:57.426Z,10.69
2017-12-24T11:04:57.167Z,10.82
2017-12-24T11:05:57.227Z,10.76
2017-12-24T11:06:57.470Z,10.75
2017-12-24T11:07:57.212Z,10.76
2017-12-24T11:08:57.567Z,10.79
2017-12-24T11:09:57.525Z,10.86
2017-12-24T11:10:57.251Z,10.84
2017-12-24T11:11:57.552Z,10.82
2017-12-24T11:12:57.285Z,10.79
2017-12-24T11:13:57.570Z,10.86
2017-12-24T11:14:57.599Z,10.84
2017-12-24T11:15:57.386Z,10.76
2017-12-24T11:16:57.340Z,10.72
2017-12-24T11:17:57.354Z,10.75
2017-12-24T11:18:57.651Z,10.71
2017-12-24T11:19:57.664Z,10.76
2017-12-24T11:20:57.454Z,10.81
2017-12-24T11:21:57.418Z,10.87
2017-12-24T11:22:57.711Z,10.79
2017-12-24T11:23:57.167Z,10.78
2017-12-24T11:24:57.481Z,10.75
2017-12-24T11:25:57.479Z,10.87
2017-12-24T11:26:57.772Z,10.79
2017-12-24T11:27:57.512Z,10.79
2017-12-24T11:28:57.522Z,10.79
2017-12-24T11:29:57.541Z,10.79
2017-12-24T11:30:57.554Z,10.78
2017-12-24T11:31:57.842Z,10.82
2017-12-24T11:32:57.857Z,10.74
2017-12-24T11:33:57.318Z,10.79
2017-12-24T11:34:57.898Z,10.75
2017-12-24T11:35:57.674Z,10.84
2017-12-24T11:36:57.643Z,10.82
2017-12-24T11:37:57.932Z,10.79
2017-12-24T11:38:57.946Z,10.86
2017-12-24T11:39:57.973Z,10.75
2017-12-24T11:40:57.977Z,10.72
2017-12-24T11:41:57.717Z,10.76
2017-12-24T11:42:58.010Z,10.84
2017-12-24T11:43:58.024Z,10.86
2017-12-24T11:44:58.036Z,10.74
2017-12-24T11:45:58.105Z,10.79
2017-12-24T11:46:57.789Z,10.86
2017-12-24T11:47:58.086Z,10.78
2017-12-24T11:48:57.824Z,10.72
2017-12-24T11:49:58.113Z,10.82
2017-12-24T11:50:58.142Z,10.76
2017-12-24T11:51:58.176Z,10.74
2017-12-24T11:52:58.159Z,10.86
2017-12-24T11:53:58.171Z,10.76
2017-12-24T11:54:58.188Z,10.89
2017-12-24T11:55:58.256Z,10.74
2017-12-24T11:56:58.224Z,10.76
2017-12-24T11:57:57.680Z,10.76
2017-12-24T11:58:57.980Z,10.71
2017-12-24T11:59:58.268Z,10.76
2017-12-24T12:00:58.056Z,10.86
2017-12-24T12:01:58.019Z,10.74
2017-12-24T12:02:58.311Z,10.82
2017-12-24T12:03:58.049Z,10.76
2017-12-24T12:04:58.073Z,10.81
2017-12-24T12:05:58.131Z,10.71
2017-12-24T12:06:58.370Z,10.89
2017-12-24T12:07:58.108Z,10.76
2017-12-24T12:08:58.398Z,10.74
2017-12-24T12:09:58.418Z,10.84
2017-12-24T12:10:58.481Z,10.79
2017-12-24T12:11:58.444Z,10.74
2017-12-24T12:12:58.460Z,10.74
2017-12-24T12:13:58.197Z,10.75
2017-12-24T12:14:58.493Z,10.78
2017-12-24T12:15:58.560Z,10.72
2017-12-24T12:16:58.522Z,10.74
2017-12-24T12:17:58.560Z,10.76
2017-12-24T12:18:58.301Z,10.84
2017-12-24T12:19:58.560Z,10.79
2017-12-24T12:20:58.304Z,10.75
2017-12-24T12:21:58.321Z,10.81
2017-12-24T12:22:58.615Z,10.79
2017-12-24T12:23:58.074Z,10.75
2017-12-24T12:24:58.364Z,10.78
2017-12-24T12:25:58.654Z,10.75
2017-12-24T12:26:58.668Z,10.79
2017-12-24T12:27:58.687Z,10.76
2017-12-24T12:28:58.427Z,10.79
2017-12-24T12:29:58.446Z,10.72
2017-12-24T12:30:58.796Z,10.78
2017-12-24T12:31:58.467Z,10.76
2017-12-24T12:32:58.759Z,10.78
2017-12-24T12:33:58.849Z,10.82
2017-12-24T12:34:58.854Z,10.79
2017-12-24T12:35:58.925Z,10.75
2017-12-24T12:36:58.543Z,10.78
2017-12-24T12:37:58.834Z,10.81
2017-12-24T12:38:58.298Z,10.76
2017-12-24T12:39:58.589Z,10.78
2017-12-24T12:40:58.935Z,10.78
2017-12-24T12:41:58.623Z,10.81
2017-12-24T12:42:58.905Z,10.79
2017-12-24T12:43:58.648Z,10.78
2017-12-24T12:44:58.944Z,10.75
2017-12-24T12:45:58.955Z,10.74
2017-12-24T12:46:58.421Z,10.78
2017-12-24T12:47:58.709Z,10.78
2017-12-24T12:48:58.998Z,10.79
2017-12-24T12:49:59.051Z,10.72
2017-12-24T12:50:58.478Z,10.67
2017-12-24T12:51:59.052Z,10.79
2017-12-24T12:52:58.507Z,10.74
2017-12-24T12:53:59.088Z,10.78
2017-12-24T12:54:58.824Z,10.74
2017-12-24T12:55:58.829Z,10.75
2017-12-24T12:56:59.119Z,10.75
2017-12-24T12:57:59.137Z,10.75
2017-12-24T12:58:59.149Z,10.75
2017-12-24T12:59:58.896Z,10.75
2017-12-24T13:00:58.628Z,10.69
2017-12-24T13:01:59.195Z,10.76
2017-12-24T13:02:59.222Z,10.72
2017-12-24T13:03:59.232Z,10.78
2017-12-24T13:04:59.244Z,10.75
2017-12-24T13:05:59.256Z,10.76
2017-12-24T13:06:58.996Z,10.78
2017-12-24T13:07:59.284Z,10.74
2017-12-24T13:08:58.752Z,10.75
2017-12-24T13:09:59.317Z,10.75
2017-12-24T13:10:59.694Z,10.69
2017-12-24T13:11:59.353Z,10.71